Time;durP1;ratioP1;P1;durP2;ratioP2;P2;SDS_P1;SDS_P2;PMS_P1;PMS_P2;Temp;Humidity;BMP_temperature;BMP_pressure;BME280_temperature;BME280_humidity;BME280_pressure;Samples;Min_cycle;Max_cycle;Signal;HPM_P1;HPM_P2
2021/11/23 00:00:18;;;;;;;13.10;8.43;;;;;;;;;;4955821;28;20142;-81
2021/11/23 00:02:44;;;;;;;15.30;9.20;;;;;;;;;;4963016;28;20046;-80
2021/11/23 00:05:11;;;;;;;12.98;9.27;;;;;;;;;;4975976;28;20085;-81
2021/11/23 00:07:37;;;;;;;14.35;9.52;;;;;;;;;;4975546;28;20500;-80
2021/11/23 00:10:04;;;;;;;15.00;9.70;;;;;;;;;;4972446;28;20053;-81
2021/11/23 00:12:30;;;;;;;15.77;9.75;;;;;;;;;;4975516;28;20050;-81
2021/11/23 00:14:56;;;;;;;23.67;12.15;;;;;;;;;;4975412;28;20047;-82
2021/11/23 00:17:21;;;;;;;17.65;10.25;;;;;;;;;;4957947;28;20039;-82
2021/11/23 00:19:47;;;;;;;22.70;12.63;;;;;;;;;;4974550;28;20058;-80
2021/11/23 00:22:12;;;;;;;17.33;10.30;;;;;;;;;;4975486;28;20045;-81
2021/11/23 00:24:38;;;;;;;18.33;10.80;;;;;;;;;;4975217;28;20039;-82
2021/11/23 00:27:05;;;;;;;15.20;10.27;;;;;;;;;;4975136;28;20050;-81
2021/11/23 00:29:31;;;;;;;14.68;9.40;;;;;;;;;;4975170;28;20046;-81
2021/11/23 00:31:56;;;;;;;14.02;9.85;;;;;;;;;;4972870;28;20042;-80
2021/11/23 00:34:22;;;;;;;18.83;10.48;;;;;;;;;;4974917;28;20377;-80
2021/11/23 00:36:48;;;;;;;12.48;10.05;;;;;;;;;;4975102;28;20081;-81
2021/11/23 00:39:13;;;;;;;13.65;9.73;;;;;;;;;;4974789;28;20501;-80
2021/11/23 00:41:39;;;;;;;13.15;9.40;;;;;;;;;;4973562;28;20039;-82
2021/11/23 00:44:04;;;;;;;18.83;10.40;;;;;;;;;;4974888;28;20070;-80
2021/11/23 00:46:30;;;;;;;12.90;9.02;;;;;;;;;;4975067;28;20038;-81
2021/11/23 00:48:55;;;;;;;15.57;10.68;;;;;;;;;;4974734;28;20045;-81
2021/11/23 00:51:21;;;;;;;14.60;9.27;;;;;;;;;;4973496;28;20050;-82
2021/11/23 00:53:46;;;;;;;15.35;9.90;;;;;;;;;;4955804;28;20042;-81
2021/11/23 00:56:12;;;;;;;17.00;9.57;;;;;;;;;;4975567;28;20043;-81
2021/11/23 00:58:37;;;;;;;12.90;9.18;;;;;;;;;;4978546;28;20049;-81
2021/11/23 01:01:04;;;;;;;12.10;9.63;;;;;;;;;;4976769;28;20578;-82
2021/11/23 01:03:32;;;;;;;15.20;9.18;;;;;;;;;;4939333;29;20047;-81
2021/11/23 01:05:59;;;;;;;14.55;9.85;;;;;;;;;;4937886;29;20054;-81
2021/11/23 01:08:27;;;;;;;16.45;9.48;;;;;;;;;;4955564;28;20051;-81
2021/11/23 01:10:53;;;;;;;13.10;9.82;;;;;;;;;;4955582;28;20067;-82
2021/11/23 01:13:19;;;;;;;12.65;9.00;;;;;;;;;;4953320;28;20038;-81
2021/11/23 01:15:44;;;;;;;14.15;9.07;;;;;;;;;;4954983;28;20134;-81
2021/11/23 01:18:10;;;;;;;16.90;9.63;;;;;;;;;;4954913;28;20050;-81
2021/11/23 01:20:36;;;;;;;13.25;8.48;;;;;;;;;;4954669;28;20058;-80
2021/11/23 01:23:03;;;;;;;14.25;9.15;;;;;;;;;;4954912;28;20040;-80
2021/11/23 01:25:30;;;;;;;14.68;9.07;;;;;;;;;;4954687;28;20070;-83
2021/11/23 01:27:56;;;;;;;11.98;9.57;;;;;;;;;;4954749;28;20118;-81
2021/11/23 01:30:21;;;;;;;14.43;9.55;;;;;;;;;;4954582;29;20573;-80
2021/11/23 01:32:47;;;;;;;11.63;7.35;;;;;;;;;;4953537;28;20066;-79
2021/11/23 01:35:12;;;;;;;14.38;10.00;;;;;;;;;;4952754;28;20035;-81
2021/11/23 01:37:39;;;;;;;12.52;10.02;;;;;;;;;;4954381;28;20055;-83
2021/11/23 01:40:05;;;;;;;13.88;9.00;;;;;;;;;;4952820;28;20050;-83
2021/11/23 01:42:31;;;;;;;14.15;9.20;;;;;;;;;;4954222;28;20039;-82
2021/11/23 01:44:57;;;;;;;13.43;8.85;;;;;;;;;;4954409;28;20420;-81
2021/11/23 01:47:22;;;;;;;15.10;9.73;;;;;;;;;;4954729;29;20110;-81
2021/11/23 01:49:48;;;;;;;15.95;9.52;;;;;;;;;;4953933;28;20065;-80
2021/11/23 01:52:13;;;;;;;11.85;9.23;;;;;;;;;;4953419;28;20046;-81
2021/11/23 01:54:40;;;;;;;12.13;10.75;;;;;;;;;;4954728;28;20449;-83
2021/11/23 01:57:06;;;;;;;11.88;7.80;;;;;;;;;;4952379;28;20636;-81
2021/11/23 01:59:32;;;;;;;12.05;9.27;;;;;;;;;;4954045;28;20043;-81
2021/11/23 02:01:57;;;;;;;10.07;9.07;;;;;;;;;;4954693;28;20065;-80
2021/11/23 02:04:23;;;;;;;10.55;9.40;;;;;;;;;;4965958;28;20125;-81
2021/11/23 02:06:48;;;;;;;11.02;9.48;;;;;;;;;;4973440;28;20046;-82
2021/11/23 02:09:14;;;;;;;9.68;8.13;;;;;;;;;;4973452;28;20073;-81
2021/11/23 02:11:40;;;;;;;9.30;7.72;;;;;;;;;;4973513;28;20121;-81
2021/11/23 02:14:05;;;;;;;9.80;7.78;;;;;;;;;;4973739;28;20050;-82
2021/11/23 02:16:32;;;;;;;9.02;7.22;;;;;;;;;;4973460;28;20519;-82
2021/11/23 02:18:58;;;;;;;9.25;7.40;;;;;;;;;;4970105;28;20078;-82
2021/11/23 02:21:23;;;;;;;12.02;7.70;;;;;;;;;;4973584;28;20077;-82
2021/11/23 02:23:49;;;;;;;8.70;7.63;;;;;;;;;;4973323;28;20054;-81
2021/11/23 02:26:14;;;;;;;10.10;8.75;;;;;;;;;;4973363;28;20531;-82
2021/11/23 02:28:41;;;;;;;7.38;6.35;;;;;;;;;;4973266;28;20508;-82
2021/11/23 02:31:08;;;;;;;7.18;6.43;;;;;;;;;;4973770;28;20042;-83
2021/11/23 02:33:35;;;;;;;7.60;6.53;;;;;;;;;;4972526;28;20050;-82
2021/11/23 02:36:05;;;;;;;6.35;5.82;;;;;;;;;;4973620;28;20113;-83
2021/11/23 02:38:32;;;;;;;8.05;7.35;;;;;;;;;;4973529;28;20046;-80
2021/11/23 02:40:59;;;;;;;8.05;6.35;;;;;;;;;;4971007;28;20130;-81
2021/11/23 02:43:24;;;;;;;10.38;8.18;;;;;;;;;;4975192;28;20042;-82
2021/11/23 02:45:51;;;;;;;7.30;6.53;;;;;;;;;;4977918;28;20141;-81
2021/11/23 02:48:18;;;;;;;6.20;5.70;;;;;;;;;;4977495;28;20046;-82
2021/11/23 02:50:49;;;;;;;6.00;5.32;;;;;;;;;;4975566;28;20058;-81
2021/11/23 02:53:15;;;;;;;;;;;;;;;;;;4975977;28;20043;-81
2021/11/23 02:55:40;;;;;;;6.43;5.35;;;;;;;;;;4976608;28;20411;-82
2021/11/23 02:58:07;;;;;;;6.32;5.70;;;;;;;;;;4976433;28;20042;-81
2021/11/23 03:00:35;;;;;;;5.57;5.07;;;;;;;;;;4954441;28;20892;-81
2021/11/23 03:03:00;;;;;;;5.97;5.38;;;;;;;;;;4960948;28;20069;-79
2021/11/23 03:05:28;;;;;;;7.47;5.95;;;;;;;;;;4955526;29;20059;-80
2021/11/23 03:07:54;;;;;;;7.82;5.65;;;;;;;;;;4955731;28;20130;-80
2021/11/23 03:10:21;;;;;;;8.25;6.60;;;;;;;;;;4955334;28;20497;-81
2021/11/23 03:12:49;;;;;;;6.68;5.93;;;;;;;;;;4955278;28;20091;-81
2021/11/23 03:15:16;;;;;;;6.95;6.35;;;;;;;;;;4955617;28;20058;-82
2021/11/23 03:17:42;;;;;;;5.85;5.35;;;;;;;;;;4955578;28;20077;-81
2021/11/23 03:20:09;;;;;;;6.10;5.50;;;;;;;;;;4955609;28;20416;-81
2021/11/23 03:22:35;;;;;;;6.22;5.75;;;;;;;;;;4949972;28;20118;-81
2021/11/23 03:25:01;;;;;;;6.13;5.72;;;;;;;;;;4951020;28;20191;-82
2021/11/23 03:27:27;;;;;;;5.85;5.20;;;;;;;;;;4948893;28;20043;-82
2021/11/23 03:29:53;;;;;;;5.47;4.65;;;;;;;;;;4953315;28;20054;-81
2021/11/23 03:32:18;;;;;;;5.18;4.78;;;;;;;;;;4955744;29;20135;-81
2021/11/23 03:34:46;;;;;;;6.18;5.15;;;;;;;;;;4954939;28;20077;-80
2021/11/23 03:37:15;;;;;;;5.32;4.82;;;;;;;;;;4956410;28;20043;-81
2021/11/23 03:39:41;;;;;;;5.15;4.78;;;;;;;;;;4953495;29;20122;-81
2021/11/23 03:42:08;;;;;;;5.75;5.22;;;;;;;;;;4955602;29;20051;-81
2021/11/23 03:44:35;;;;;;;5.80;5.32;;;;;;;;;;4955314;29;20102;-81
2021/11/23 03:47:02;;;;;;;5.05;4.70;;;;;;;;;;4953915;28;20040;-80
2021/11/23 03:49:28;;;;;;;4.78;4.38;;;;;;;;;;4953144;29;20126;-82
2021/11/23 03:51:55;;;;;;;6.57;5.60;;;;;;;;;;4952223;29;20139;-82
2021/11/23 03:54:21;;;;;;;6.57;5.82;;;;;;;;;;4955162;28;20039;-80
2021/11/23 03:56:47;;;;;;;5.90;5.22;;;;;;;;;;4956105;28;20107;-83
2021/11/23 03:59:14;;;;;;;5.80;5.30;;;;;;;;;;4955822;29;20122;-83
2021/11/23 04:01:40;;;;;;;7.65;7.13;;;;;;;;;;4954567;29;20463;-81
2021/11/23 04:04:06;;;;;;;7.70;7.00;;;;;;;;;;4973531;28;20115;-81
2021/11/23 04:06:31;;;;;;;5.93;5.38;;;;;;;;;;4973726;28;20153;-82
2021/11/23 04:08:57;;;;;;;5.38;4.72;;;;;;;;;;4972508;28;20126;-82
2021/11/23 04:11:22;;;;;;;4.85;4.50;;;;;;;;;;4974778;28;20131;-82
2021/11/23 04:13:48;;;;;;;4.90;4.38;;;;;;;;;;4974856;28;20053;-82
2021/11/23 04:16:16;;;;;;;5.50;5.10;;;;;;;;;;4974775;28;20061;-81
2021/11/23 04:18:42;;;;;;;4.72;4.32;;;;;;;;;;4974881;28;20103;-82
2021/11/23 04:21:07;;;;;;;4.43;4.15;;;;;;;;;;4974976;28;20050;-81
2021/11/23 04:23:33;;;;;;;5.90;5.43;;;;;;;;;;4968374;28;20520;-82
2021/11/23 04:25:58;;;;;;;5.68;5.28;;;;;;;;;;4956140;29;20035;-83
2021/11/23 04:28:23;;;;;;;5.38;4.80;;;;;;;;;;4953446;28;20074;-83
2021/11/23 04:30:49;;;;;;;5.70;5.30;;;;;;;;;;4953148;28;20050;-84
2021/11/23 04:33:14;;;;;;;5.15;4.63;;;;;;;;;;4920485;29;20241;-80
2021/11/23 04:35:41;;;;;;;5.95;5.15;;;;;;;;;;4953262;28;20074;-79
2021/11/23 04:38:08;;;;;;;5.75;5.30;;;;;;;;;;4954042;28;20051;-82
2021/11/23 04:40:34;;;;;;;6.30;5.70;;;;;;;;;;4963968;28;20046;-80
2021/11/23 04:42:59;;;;;;;5.80;5.30;;;;;;;;;;4973876;28;20039;-81
2021/11/23 04:45:25;;;;;;;5.47;4.97;;;;;;;;;;4972678;28;20035;-81
2021/11/23 04:47:50;;;;;;;7.82;3.40;;;;;;;;;;4973188;28;20435;-82
2021/11/23 04:50:16;;;;;;;6.15;5.57;;;;;;;;;;4972633;28;20038;-82
2021/11/23 04:52:42;;;;;;;5.55;5.15;;;;;;;;;;4969195;28;20133;-82
2021/11/23 04:55:08;;;;;;;4.88;3.65;;;;;;;;;;4974312;28;20411;-82
2021/11/23 04:57:34;;;;;;;4.82;4.45;;;;;;;;;;4971210;28;20057;-81
2021/11/23 05:00:00;;;;;;;4.65;4.28;;;;;;;;;;4974051;28;20485;-82
2021/11/23 05:02:26;;;;;;;5.28;4.85;;;;;;;;;;4956176;28;20050;-84
2021/11/23 05:04:51;;;;;;;6.38;5.28;;;;;;;;;;4974137;28;20090;-81
2021/11/23 05:07:17;;;;;;;6.03;5.32;;;;;;;;;;4966386;28;20054;-80
2021/11/23 05:09:42;;;;;;;5.85;4.40;;;;;;;;;;4954766;29;20055;-80
2021/11/23 05:12:08;;;;;;;5.65;4.65;;;;;;;;;;4954898;29;20043;-82
2021/11/23 05:14:33;;;;;;;4.75;4.35;;;;;;;;;;4954737;28;20508;-81
2021/11/23 05:16:59;;;;;;;5.10;4.68;;;;;;;;;;4952940;29;20043;-83
2021/11/23 05:19:24;;;;;;;5.18;4.75;;;;;;;;;;4952657;28;20043;-83
2021/11/23 05:21:50;;;;;;;5.25;4.82;;;;;;;;;;4951681;29;20050;-80
2021/11/23 05:24:16;;;;;;;5.22;4.75;;;;;;;;;;4935632;29;20051;-82
2021/11/23 05:26:42;;;;;;;5.35;4.97;;;;;;;;;;4952844;28;20501;-81
2021/11/23 05:29:10;;;;;;;6.25;5.53;;;;;;;;;;4952542;28;20094;-82
2021/11/23 05:31:35;;;;;;;8.63;6.00;;;;;;;;;;4935369;29;20083;-82
2021/11/23 05:34:01;;;;;;;5.03;4.63;;;;;;;;;;4952930;28;20121;-82
2021/11/23 05:36:27;;;;;;;5.68;5.13;;;;;;;;;;4951260;28;20043;-82
2021/11/23 05:38:52;;;;;;;6.20;5.57;;;;;;;;;;4952905;28;20039;-81
2021/11/23 05:41:18;;;;;;;4.47;4.18;;;;;;;;;;4952982;28;20119;-83
2021/11/23 05:43:43;;;;;;;5.05;4.65;;;;;;;;;;4953377;29;20043;-82
2021/11/23 05:46:09;;;;;;;5.07;4.72;;;;;;;;;;4953924;28;20047;-80
2021/11/23 05:48:35;;;;;;;5.32;4.93;;;;;;;;;;4953124;28;20043;-81
2021/11/23 05:51:03;;;;;;;6.15;5.57;;;;;;;;;;4952557;28;20105;-82
2021/11/23 05:53:34;;;;;;;12.13;5.82;;;;;;;;;;4953101;28;20047;-81
2021/11/23 05:56:01;;;;;;;6.70;5.82;;;;;;;;;;4953454;28;20103;-82
2021/11/23 05:58:27;;;;;;;7.13;6.53;;;;;;;;;;4936308;29;20038;-81
2021/11/23 06:00:53;;;;;;;7.68;5.65;;;;;;;;;;4951772;28;20565;-81
2021/11/23 06:03:19;;;;;;;5.00;4.60;;;;;;;;;;4953221;28;20046;-82
2021/11/23 06:05:44;;;;;;;6.78;5.65;;;;;;;;;;4953329;28;20543;-81
2021/11/23 06:08:10;;;;;;;7.07;6.15;;;;;;;;;;4953633;28;20047;-81
2021/11/23 06:10:35;;;;;;;5.30;4.88;;;;;;;;;;4952242;28;20109;-82
2021/11/23 06:13:01;;;;;;;6.25;5.75;;;;;;;;;;4954026;28;20722;-81
2021/11/23 06:15:30;;;;;;;6.57;5.95;;;;;;;;;;4954676;29;20046;-82
2021/11/23 06:18:02;;;;;;;8.25;5.63;;;;;;;;;;4956737;28;20070;-80
2021/11/23 06:20:33;;;;;;;5.63;5.28;;;;;;;;;;4961571;28;20057;-82
2021/11/23 06:23:03;;;;;;;5.15;4.78;;;;;;;;;;4963106;28;20035;-82
2021/11/23 06:25:29;;;;;;;4.72;4.32;;;;;;;;;;4960411;28;20266;-82
2021/11/23 06:27:55;;;;;;;5.75;5.25;;;;;;;;;;4960388;28;20174;-82
2021/11/23 06:30:21;;;;;;;6.07;5.68;;;;;;;;;;4959954;28;20142;-85
2021/11/23 06:32:47;;;;;;;4.72;4.43;;;;;;;;;;4960342;28;20497;-83
2021/11/23 06:35:13;;;;;;;5.43;4.93;;;;;;;;;;4943484;29;20495;-81
2021/11/23 06:37:39;;;;;;;5.97;5.57;;;;;;;;;;4960968;28;20043;-84
2021/11/23 06:40:06;;;;;;;5.97;5.50;;;;;;;;;;4960010;28;20563;-83
2021/11/23 06:42:31;;;;;;;7.28;6.80;;;;;;;;;;4960255;28;20445;-81
2021/11/23 06:44:57;;;;;;;4.75;4.28;;;;;;;;;;4960663;28;20079;-82
2021/11/23 06:47:22;;;;;;;5.82;5.43;;;;;;;;;;4960131;28;20552;-80
2021/11/23 06:49:49;;;;;;;5.00;4.68;;;;;;;;;;4960186;28;20086;-82
2021/11/23 06:52:15;;;;;;;5.60;4.93;;;;;;;;;;4942694;29;20050;-83
2021/11/23 06:54:40;;;;;;;5.55;5.05;;;;;;;;;;4959875;29;20043;-81
2021/11/23 06:57:06;;;;;;;5.28;4.82;;;;;;;;;;4960117;28;20625;-83
2021/11/23 06:59:32;;;;;;;7.60;4.95;;;;;;;;;;4960643;28;20055;-82
2021/11/23 07:01:57;;;;;;;5.82;5.40;;;;;;;;;;4960697;28;20201;-83
2021/11/23 07:04:23;;;;;;;5.70;5.20;;;;;;;;;;4964821;28;20066;-83
2021/11/23 07:06:48;;;;;;;5.60;5.10;;;;;;;;;;4963719;28;20501;-82
2021/11/23 07:09:15;;;;;;;7.35;6.10;;;;;;;;;;4960158;28;20158;-82
2021/11/23 07:11:40;;;;;;;5.22;4.55;;;;;;;;;;4959325;28;20043;-82
2021/11/23 07:14:07;;;;;;;5.30;4.90;;;;;;;;;;4959945;28;20043;-82
2021/11/23 07:16:34;;;;;;;4.85;4.45;;;;;;;;;;4959885;28;20047;-82
2021/11/23 07:19:00;;;;;;;5.78;5.18;;;;;;;;;;4960283;28;20077;-81
2021/11/23 07:21:26;;;;;;;5.93;5.53;;;;;;;;;;4959595;28;20050;-81
2021/11/23 07:23:52;;;;;;;5.85;5.35;;;;;;;;;;4958357;28;20043;-81
2021/11/23 07:26:17;;;;;;;4.88;4.35;;;;;;;;;;4959508;29;20054;-81
2021/11/23 07:28:43;;;;;;;5.32;4.82;;;;;;;;;;4959295;28;20142;-82
2021/11/23 07:31:08;;;;;;;5.22;4.72;;;;;;;;;;4956493;29;20047;-82
2021/11/23 07:33:34;;;;;;;5.00;4.65;;;;;;;;;;4956770;28;20078;-81
2021/11/23 07:35:59;;;;;;;6.07;5.45;;;;;;;;;;4956836;28;20050;-81
2021/11/23 07:38:25;;;;;;;5.85;4.80;;;;;;;;;;4956649;29;20102;-81
2021/11/23 07:40:51;;;;;;;6.97;6.38;;;;;;;;;;4954366;28;20527;-81
2021/11/23 07:43:16;;;;;;;6.65;6.05;;;;;;;;;;4956430;28;20493;-81
2021/11/23 07:45:42;;;;;;;5.55;5.03;;;;;;;;;;4956562;28;20107;-82
2021/11/23 07:48:08;;;;;;;5.10;4.65;;;;;;;;;;4956593;28;20039;-83
2021/11/23 07:50:34;;;;;;;6.45;5.85;;;;;;;;;;4956678;28;20109;-84
2021/11/23 07:53:00;;;;;;;6.30;5.80;;;;;;;;;;4956764;29;20477;-84
2021/11/23 07:55:26;;;;;;;6.63;5.72;;;;;;;;;;4955185;28;20046;-82
2021/11/23 07:57:51;;;;;;;6.65;5.45;;;;;;;;;;4957025;28;20035;-84
2021/11/23 08:00:17;;;;;;;6.85;5.63;;;;;;;;;;4969511;28;20051;-82
2021/11/23 08:02:43;;;;;;;5.93;5.35;;;;;;;;;;4942524;29;20424;-82
2021/11/23 08:05:09;;;;;;;5.63;4.75;;;;;;;;;;4956624;28;20386;-83
2021/11/23 08:07:34;;;;;;;5.63;5.13;;;;;;;;;;4957082;28;20120;-82
2021/11/23 08:10:00;;;;;;;7.80;5.10;;;;;;;;;;4960694;29;20039;-82
2021/11/23 08:12:26;;;;;;;7.32;6.68;;;;;;;;;;4956939;28;20047;-81
2021/11/23 08:14:52;;;;;;;7.38;6.13;;;;;;;;;;4954578;28;20043;-83
2021/11/23 08:17:17;;;;;;;6.20;5.78;;;;;;;;;;4954719;28;20058;-81
2021/11/23 08:19:43;;;;;;;6.30;5.60;;;;;;;;;;4954450;29;20070;-81
2021/11/23 08:22:08;;;;;;;6.53;5.90;;;;;;;;;;4955926;28;20058;-81
2021/11/23 08:24:34;;;;;;;7.68;6.18;;;;;;;;;;4956879;28;20054;-83
2021/11/23 08:27:00;;;;;;;6.55;5.93;;;;;;;;;;4956194;28;20043;-80
2021/11/23 08:29:26;;;;;;;6.45;5.53;;;;;;;;;;4955563;28;20042;-80
2021/11/23 08:31:52;;;;;;;8.40;5.32;;;;;;;;;;4955632;28;20059;-82
2021/11/23 08:34:19;;;;;;;7.03;5.53;;;;;;;;;;4955869;28;20417;-81
2021/11/23 08:36:45;;;;;;;5.72;4.78;;;;;;;;;;4955357;28;20047;-83
2021/11/23 08:39:11;;;;;;;5.35;4.85;;;;;;;;;;4955469;28;20140;-82
2021/11/23 08:41:36;;;;;;;7.65;5.32;;;;;;;;;;4954582;28;20039;-82
2021/11/23 08:44:02;;;;;;;5.35;4.85;;;;;;;;;;4955499;29;20155;-81
2021/11/23 08:46:28;;;;;;;5.10;4.70;;;;;;;;;;4955436;28;20047;-80
2021/11/23 08:48:53;;;;;;;4.47;4.07;;;;;;;;;;4955555;28;20072;-80
2021/11/23 08:51:23;;;;;;;4.80;4.40;;;;;;;;;;4955267;28;20039;-82
2021/11/23 08:53:51;;;;;;;5.70;4.68;;;;;;;;;;4954106;28;20057;-82
2021/11/23 08:56:16;;;;;;;5.13;4.63;;;;;;;;;;4937827;29;20111;-83
2021/11/23 08:58:44;;;;;;;5.65;5.00;;;;;;;;;;4955254;29;20043;-82
2021/11/23 09:01:09;;;;;;;5.60;5.10;;;;;;;;;;4937739;29;20051;-83
2021/11/23 09:03:38;;;;;;;5.55;5.07;;;;;;;;;;4955060;29;20501;-81
2021/11/23 09:06:04;;;;;;;6.28;5.45;;;;;;;;;;4954962;28;20043;-81
2021/11/23 09:08:30;;;;;;;5.70;5.20;;;;;;;;;;4954882;28;20050;-81
2021/11/23 09:10:56;;;;;;;5.25;4.78;;;;;;;;;;4953712;29;20042;-82
2021/11/23 09:13:23;;;;;;;6.32;4.72;;;;;;;;;;4954927;28;20504;-79
2021/11/23 09:15:48;;;;;;;6.53;5.88;;;;;;;;;;4954399;28;20596;-79
2021/11/23 09:18:14;;;;;;;5.82;5.40;;;;;;;;;;4954520;29;20054;-80
2021/11/23 09:20:40;;;;;;;5.05;4.65;;;;;;;;;;4937025;29;20039;-82
2021/11/23 09:23:10;;;;;;;6.18;5.68;;;;;;;;;;4954176;28;20051;-81
2021/11/23 09:25:36;;;;;;;5.82;5.43;;;;;;;;;;4954022;28;20043;-80
2021/11/23 09:28:03;;;;;;;6.35;5.75;;;;;;;;;;4954114;28;20047;-80
2021/11/23 09:30:30;;;;;;;6.55;5.80;;;;;;;;;;4953748;28;20572;-79
2021/11/23 09:33:00;;;;;;;6.97;6.40;;;;;;;;;;4953612;28;20042;-79
2021/11/23 09:35:26;;;;;;;6.63;5.90;;;;;;;;;;4953930;29;20119;-79
2021/11/23 09:37:53;;;;;;;6.78;5.93;;;;;;;;;;4953881;28;20131;-78
2021/11/23 09:40:19;;;;;;;6.35;5.75;;;;;;;;;;4953486;28;20082;-78
2021/11/23 09:42:46;;;;;;;8.13;6.00;;;;;;;;;;4953861;28;20047;-80
2021/11/23 09:45:12;;;;;;;5.22;4.82;;;;;;;;;;4953851;29;20045;-80
2021/11/23 09:47:37;;;;;;;4.70;4.35;;;;;;;;;;4953760;28;20415;-78
2021/11/23 09:50:04;;;;;;;4.55;4.15;;;;;;;;;;4936757;29;20071;-79
2021/11/23 09:52:32;;;;;;;6.10;5.50;;;;;;;;;;4952873;28;20051;-78
2021/11/23 09:54:58;;;;;;;6.68;5.50;;;;;;;;;;4954080;28;20046;-79
2021/11/23 09:57:23;;;;;;;5.82;5.13;;;;;;;;;;4955554;29;20047;-80
2021/11/23 09:59:49;;;;;;;6.10;5.32;;;;;;;;;;4953827;28;20075;-78
2021/11/23 10:02:25;;;;;;;5.35;4.93;;;;;;;;;;4936319;29;20117;-79
2021/11/23 10:05:00;;;;;;;5.13;4.65;;;;;;;;;;4953656;29;20039;-77
2021/11/23 10:07:35;;;;;;;6.00;5.35;;;;;;;;;;4953319;29;20106;-79
2021/11/23 10:10:17;;;;;;;7.63;4.93;;;;;;;;;;4953510;28;20043;-79
2021/11/23 10:12:57;;;;;;;6.13;5.63;;;;;;;;;;4953199;29;20051;-78
2021/11/23 10:15:27;;;;;;;6.57;4.85;;;;;;;;;;4953098;29;20094;-79
2021/11/23 10:18:06;;;;;;;5.03;4.63;;;;;;;;;;4953739;28;20047;-81
2021/11/23 10:21:01;;;;;;;7.03;6.28;;;;;;;;;;4953352;29;20122;-81
2021/11/23 10:23:37;;;;;;;4.93;4.55;;;;;;;;;;4936031;28;20051;-80
2021/11/23 10:26:03;;;;;;;6.30;5.88;;;;;;;;;;4953450;29;20043;-80
2021/11/23 10:28:30;;;;;;;6.57;5.93;;;;;;;;;;4953057;29;20118;-79
2021/11/23 10:30:57;;;;;;;6.85;6.25;;;;;;;;;;4953193;28;20039;-78
2021/11/23 10:33:23;;;;;;;4.75;4.35;;;;;;;;;;4953390;28;20047;-79
2021/11/23 10:35:52;;;;;;;4.90;4.47;;;;;;;;;;4953202;28;20408;-79
2021/11/23 10:38:20;;;;;;;5.35;4.47;;;;;;;;;;4952790;29;20043;-79
2021/11/23 10:40:48;;;;;;;5.00;4.57;;;;;;;;;;4935493;29;20039;-78
2021/11/23 10:43:16;;;;;;;5.03;4.60;;;;;;;;;;4953254;29;20130;-78
2021/11/23 10:46:00;;;;;;;9.60;6.53;;;;;;;;;;4952779;28;20043;-78
2021/11/23 10:48:27;;;;;;;5.25;4.85;;;;;;;;;;4935774;29;20043;-81
2021/11/23 10:51:07;;;;;;;5.35;4.97;;;;;;;;;;4952587;28;20161;-78
2021/11/23 10:53:35;;;;;;;5.55;4.97;;;;;;;;;;4953188;28;20047;-78
2021/11/23 10:56:10;;;;;;;8.27;5.80;;;;;;;;;;4953429;28;20067;-79
2021/11/23 10:58:36;;;;;;;5.28;4.78;;;;;;;;;;4952705;28;20219;-79
2021/11/23 11:01:05;;;;;;;4.97;4.38;;;;;;;;;;4952584;28;20492;-78
2021/11/23 11:03:32;;;;;;;5.53;4.60;;;;;;;;;;4953134;28;20051;-78
2021/11/23 11:06:01;;;;;;;4.50;4.20;;;;;;;;;;4939175;29;20039;-79
2021/11/23 11:08:28;;;;;;;7.45;4.43;;;;;;;;;;4956539;29;20097;-79
2021/11/23 11:10:54;;;;;;;5.90;5.03;;;;;;;;;;4956302;28;20858;-80
2021/11/23 11:13:22;;;;;;;5.80;3.58;;;;;;;;;;4956217;28;20435;-80
2021/11/23 11:15:58;;;;;;;5.63;5.15;;;;;;;;;;4956452;29;20046;-80
2021/11/23 11:18:24;;;;;;;5.25;4.78;;;;;;;;;;4956538;28;20696;-78
2021/11/23 11:20:57;;;;;;;5.30;4.90;;;;;;;;;;4955821;28;20273;-79
2021/11/23 11:23:31;;;;;;;5.82;4.95;;;;;;;;;;4956077;28;20519;-79
2021/11/23 11:26:25;;;;;;;9.43;6.40;;;;;;;;;;4939188;29;20043;-79
2021/11/23 11:28:57;;;;;;;8.40;5.38;;;;;;;;;;4953964;28;20047;-80
2021/11/23 11:31:29;;;;;;;5.15;4.60;;;;;;;;;;4939154;28;20098;-79
2021/11/23 11:34:15;;;;;;;6.50;5.05;;;;;;;;;;4956257;28;20141;-81
2021/11/23 11:36:42;;;;;;;4.88;4.40;;;;;;;;;;4954827;28;20047;-79
2021/11/23 11:39:07;;;;;;;5.88;5.22;;;;;;;;;;4955979;28;20073;-79
2021/11/23 11:41:39;;;;;;;6.13;5.55;;;;;;;;;;4956178;28;20078;-79
2021/11/23 11:44:10;;;;;;;5.88;5.32;;;;;;;;;;4940574;29;20055;-80
2021/11/23 11:46:36;;;;;;;6.13;5.63;;;;;;;;;;4956456;28;20035;-78
2021/11/23 11:49:03;;;;;;;3.55;3.25;;;;;;;;;;4956197;28;20429;-79
2021/11/23 11:51:40;;;;;;;5.40;3.67;;;;;;;;;;4955963;28;20412;-79
2021/11/23 11:54:26;;;;;;;10.38;5.28;;;;;;;;;;4955832;28;20098;-80
2021/11/23 11:56:52;;;;;;;9.63;6.78;;;;;;;;;;4955200;28;20039;-79
2021/11/23 11:59:17;;;;;;;5.88;5.20;;;;;;;;;;4955635;28;20429;-79
2021/11/23 12:02:18;;;;;;;5.88;5.32;;;;;;;;;;4955482;28;20046;-78
2021/11/23 12:05:14;;;;;;;6.45;5.50;;;;;;;;;;4955376;28;20070;-80
2021/11/23 12:07:41;;;;;;;7.35;5.75;;;;;;;;;;4939067;29;20066;-79
2021/11/23 12:10:28;;;;;;;7.43;5.75;;;;;;;;;;4955200;28;20067;-78
2021/11/23 12:12:57;;;;;;;5.90;5.32;;;;;;;;;;4953775;28;20050;-80
2021/11/23 12:15:36;;;;;;;7.00;6.03;;;;;;;;;;4953557;28;20039;-78
2021/11/23 12:18:28;;;;;;;6.65;5.57;;;;;;;;;;4955162;28;20062;-79
2021/11/23 12:21:16;;;;;;;5.72;5.20;;;;;;;;;;4955160;28;20047;-80
2021/11/23 12:23:56;;;;;;;6.38;5.72;;;;;;;;;;4954965;28;20051;-79
2021/11/23 12:26:29;;;;;;;7.00;5.18;;;;;;;;;;4954887;28;20046;-78
2021/11/23 12:29:00;;;;;;;8.90;5.55;;;;;;;;;;4954903;28;20047;-79
2021/11/23 12:31:42;;;;;;;11.65;5.60;;;;;;;;;;4954981;28;20077;-78
2021/11/23 12:34:08;;;;;;;6.22;5.63;;;;;;;;;;4955135;28;20043;-80
2021/11/23 12:36:55;;;;;;;5.25;4.85;;;;;;;;;;4955299;28;20039;-79
2021/11/23 12:39:25;;;;;;;8.52;5.20;;;;;;;;;;4937914;29;20043;-80
2021/11/23 12:42:00;;;;;;;5.25;4.80;;;;;;;;;;4954712;28;20043;-79
2021/11/23 12:44:34;;;;;;;6.85;6.32;;;;;;;;;;4954995;28;20046;-80
2021/11/23 12:47:14;;;;;;;7.28;5.25;;;;;;;;;;4937545;28;20444;-79
2021/11/23 12:49:41;;;;;;;7.20;5.45;;;;;;;;;;4954754;28;20174;-79
2021/11/23 12:52:09;;;;;;;5.38;4.72;;;;;;;;;;4954955;29;20135;-80
2021/11/23 12:54:41;;;;;;;8.30;6.25;;;;;;;;;;4954780;28;20500;-79
2021/11/23 12:57:13;;;;;;;5.45;4.82;;;;;;;;;;4954843;29;20088;-78
2021/11/23 12:59:43;;;;;;;7.15;5.20;;;;;;;;;;4953037;28;20053;-80
2021/11/23 13:02:34;;;;;;;4.78;4.40;;;;;;;;;;4954505;28;20532;-79
2021/11/23 13:05:12;;;;;;;6.45;5.82;;;;;;;;;;4955159;28;20062;-79
2021/11/23 13:07:41;;;;;;;5.53;4.63;;;;;;;;;;4954652;28;20501;-79
2021/11/23 13:10:11;;;;;;;6.90;5.65;;;;;;;;;;4954426;28;20043;-78
2021/11/23 13:12:42;;;;;;;7.60;5.35;;;;;;;;;;4952923;28;20075;-79
2021/11/23 13:15:16;;;;;;;5.72;5.32;;;;;;;;;;4955041;29;20039;-81
2021/11/23 13:17:54;;;;;;;5.22;4.57;;;;;;;;;;4954888;28;20047;-82
2021/11/23 13:20:44;;;;;;;4.68;4.18;;;;;;;;;;4954688;28;20039;-80
2021/11/23 13:23:31;;;;;;;5.95;5.15;;;;;;;;;;4937683;28;20043;-82
2021/11/23 13:26:15;;;;;;;5.47;5.03;;;;;;;;;;4954346;28;20043;-79
2021/11/23 13:28:41;;;;;;;5.38;4.88;;;;;;;;;;4954224;28;20043;-80
2021/11/23 13:31:11;;;;;;;6.75;5.85;;;;;;;;;;4954280;29;20043;-78
2021/11/23 13:33:42;;;;;;;5.70;5.20;;;;;;;;;;4954633;29;20099;-79
2021/11/23 13:36:17;;;;;;;8.25;5.65;;;;;;;;;;4937250;29;20051;-79
2021/11/23 13:38:51;;;;;;;5.70;5.20;;;;;;;;;;4953775;28;20055;-79
2021/11/23 13:41:25;;;;;;;5.63;5.20;;;;;;;;;;4936700;28;20094;-81
2021/11/23 13:43:53;;;;;;;7.03;5.40;;;;;;;;;;4953832;29;20057;-78
2021/11/23 13:46:19;;;;;;;7.78;5.05;;;;;;;;;;4953968;29;20075;-79
2021/11/23 13:49:04;;;;;;;5.63;5.13;;;;;;;;;;4952437;28;20042;-79
2021/11/23 13:51:29;;;;;;;6.05;5.38;;;;;;;;;;4952478;28;20123;-79
2021/11/23 13:54:02;;;;;;;9.45;5.78;;;;;;;;;;4953668;28;20043;-80
2021/11/23 13:56:31;;;;;;;9.25;6.38;;;;;;;;;;4953716;28;20047;-80
2021/11/23 13:58:59;;;;;;;6.55;5.72;;;;;;;;;;4953527;29;20071;-80
2021/11/23 14:01:34;;;;;;;9.15;5.35;;;;;;;;;;4953566;28;20043;-79
2021/11/23 14:04:05;;;;;;;6.75;6.03;;;;;;;;;;4953894;28;20047;-81
2021/11/23 14:06:30;;;;;;;6.63;5.95;;;;;;;;;;4953593;28;20130;-80
2021/11/23 14:09:03;;;;;;;6.03;5.53;;;;;;;;;;4952712;28;20121;-82
2021/11/23 14:11:29;;;;;;;7.03;6.43;;;;;;;;;;4953704;28;20050;-81
2021/11/23 14:14:00;;;;;;;6.90;6.30;;;;;;;;;;4953597;28;20732;-79
2021/11/23 14:16:28;;;;;;;8.48;5.95;;;;;;;;;;4953785;28;20051;-81
2021/11/23 14:18:54;;;;;;;7.22;6.57;;;;;;;;;;4952431;28;20043;-79
2021/11/23 14:21:24;;;;;;;6.45;5.85;;;;;;;;;;4953625;28;20047;-80
2021/11/23 14:23:54;;;;;;;7.30;6.35;;;;;;;;;;4936573;29;20455;-81
2021/11/23 14:26:30;;;;;;;7.80;5.63;;;;;;;;;;4953581;28;20047;-79
2021/11/23 14:28:58;;;;;;;6.32;5.82;;;;;;;;;;4952413;28;20106;-79
2021/11/23 14:31:31;;;;;;;7.57;5.95;;;;;;;;;;4953323;28;20122;-82
2021/11/23 14:33:59;;;;;;;6.78;6.05;;;;;;;;;;4953284;28;20046;-81
2021/11/23 14:36:30;;;;;;;7.20;6.50;;;;;;;;;;4953257;28;20046;-81
2021/11/23 14:38:57;;;;;;;6.95;6.35;;;;;;;;;;4937572;29;20043;-79
2021/11/23 14:41:22;;;;;;;7.18;6.68;;;;;;;;;;4957076;28;20039;-81
2021/11/23 14:43:48;;;;;;;7.57;5.88;;;;;;;;;;4957432;28;20046;-80
2021/11/23 14:46:14;;;;;;;9.40;5.57;;;;;;;;;;4957247;28;20493;-83